sensor_id;sensor_type;location;lat;lon;timestamp;temperature;humidity
18577;DHT22;9418;52.694;13.294;2022-10-18T00:00:51;15.50;99.90
18577;DHT22;9418;52.694;13.294;2022-10-18T00:03:18;15.50;99.90
18577;DHT22;9418;52.694;13.294;2022-10-18T00:05:45;15.50;99.90
18577;DHT22;9418;52.694;13.294;2022-10-18T00:08:12;15.50;99.90
18577;DHT22;9418;52.694;13.294;2022-10-18T00:10:39;15.50;99.90
18577;DHT22;9418;52.694;13.294;2022-10-18T00:13:05;15.50;99.90
18577;DHT22;9418;52.694;13.294;2022-10-18T00:15:33;15.50;99.90
18577;DHT22;9418;52.694;13.294;2022-10-18T00:18:00;15.50;99.90
18577;DHT22;9418;52.694;13.294;2022-10-18T00:20:27;15.50;99.90
18577;DHT22;9418;52.694;13.294;2022-10-18T00:22:54;15.50;99.90
18577;DHT22;9418;52.694;13.294;2022-10-18T00:25:20;15.50;99.90
18577;DHT22;9418;52.694;13.294;2022-10-18T00:27:47;15.50;99.90
18577;DHT22;9418;52.694;13.294;2022-10-18T00:30:13;15.50;99.90
18577;DHT22;9418;52.694;13.294;2022-10-18T00:32:41;15.50;99.90
18577;DHT22;9418;52.694;13.294;2022-10-18T00:35:08;15.50;99.90
18577;DHT22;9418;52.694;13.294;2022-10-18T00:37:35;15.50;99.90
18577;DHT22;9418;52.694;13.294;2022-10-18T00:40:03;15.50;99.90
18577;DHT22;9418;52.694;13.294;2022-10-18T00:42:32;15.50;99.90
18577;DHT22;9418;52.694;13.294;2022-10-18T00:45:08;15.50;99.90
18577;DHT22;9418;52.694;13.294;2022-10-18T00:47:38;15.50;99.90
18577;DHT22;9418;52.694;13.294;2022-10-18T00:50:07;15.50;99.90
18577;DHT22;9418;52.694;13.294;2022-10-18T00:52:37;15.60;99.90
18577;DHT22;9418;52.694;13.294;2022-10-18T00:55:05;15.60;99.90
18577;DHT22;9418;52.694;13.294;2022-10-18T00:57:33;15.60;99.90
18577;DHT22;9418;52.694;13.294;2022-10-18T01:00:00;15.60;99.90
18577;DHT22;9418;52.694;13.294;2022-10-18T01:02:28;15.60;99.90
18577;DHT22;9418;52.694;13.294;2022-10-18T01:04:57;15.70;99.90
18577;DHT22;9418;52.694;13.294;2022-10-18T01:07:36;15.70;99.90
18577;DHT22;9418;52.694;13.294;2022-10-18T01:13:03;15.80;99.90
18577;DHT22;9418;52.694;13.294;2022-10-18T01:15:38;15.80;99.90
18577;DHT22;9418;52.694;13.294;2022-10-18T01:18:12;15.90;99.90
18577;DHT22;9418;52.694;13.294;2022-10-18T01:21:02;15.90;99.90
18577;DHT22;9418;52.694;13.294;2022-10-18T01:23:53;16.00;99.90
18577;DHT22;9418;52.694;13.294;2022-10-18T01:26:33;16.00;99.90
18577;DHT22;9418;52.694;13.294;2022-10-18T01:29:16;16.00;99.90
18577;DHT22;9418;52.694;13.294;2022-10-18T01:31:50;16.00;99.90
18577;DHT22;9418;52.694;13.294;2022-10-18T01:34:19;16.10;99.90
18577;DHT22;9418;52.694;13.294;2022-10-18T01:36:47;16.00;99.90
18577;DHT22;9418;52.694;13.294;2022-10-18T01:39:19;16.10;99.90
18577;DHT22;9418;52.694;13.294;2022-10-18T01:41:48;16.10;99.90
18577;DHT22;9418;52.694;13.294;2022-10-18T01:44:19;16.10;99.90
18577;DHT22;9418;52.694;13.294;2022-10-18T01:46:48;16.20;99.90
18577;DHT22;9418;52.694;13.294;2022-10-18T01:49:16;16.20;99.90
18577;DHT22;9418;52.694;13.294;2022-10-18T01:51:42;16.30;99.90
18577;DHT22;9418;52.694;13.294;2022-10-18T01:54:12;16.20;99.90
18577;DHT22;9418;52.694;13.294;2022-10-18T01:56:46;16.30;99.90
18577;DHT22;9418;52.694;13.294;2022-10-18T01:59:41;16.30;96.20
18577;DHT22;9418;52.694;13.294;2022-10-18T02:02:18;16.40;97.60
18577;DHT22;9418;52.694;13.294;2022-10-18T02:04:55;16.30;95.60
18577;DHT22;9418;52.694;13.294;2022-10-18T02:07:30;16.40;93.10
18577;DHT22;9418;52.694;13.294;2022-10-18T02:10:04;16.40;89.90
18577;DHT22;9418;52.694;13.294;2022-10-18T02:12:33;16.40;93.40
18577;DHT22;9418;52.694;13.294;2022-10-18T02:15:01;16.40;92.50
18577;DHT22;9418;52.694;13.294;2022-10-18T02:17:31;16.40;90.30
18577;DHT22;9418;52.694;13.294;2022-10-18T02:20:01;16.40;88.10
18577;DHT22;9418;52.694;13.294;2022-10-18T02:22:30;16.40;84.50
18577;DHT22;9418;52.694;13.294;2022-10-18T02:24:59;16.40;80.80
18577;DHT22;9418;52.694;13.294;2022-10-18T02:27:27;16.40;79.80
18577;DHT22;9418;52.694;13.294;2022-10-18T02:29:54;16.40;77.00
18577;DHT22;9418;52.694;13.294;2022-10-18T02:32:26;16.40;75.60
18577;DHT22;9418;52.694;13.294;2022-10-18T02:34:58;16.40;72.30
18577;DHT22;9418;52.694;13.294;2022-10-18T02:37:29;16.50;69.60
18577;DHT22;9418;52.694;13.294;2022-10-18T02:39:57;16.50;69.60
18577;DHT22;9418;52.694;13.294;2022-10-18T02:42:23;16.50;68.80
18577;DHT22;9418;52.694;13.294;2022-10-18T02:44:50;16.50;68.10
18577;DHT22;9418;52.694;13.294;2022-10-18T02:47:17;16.50;67.60
18577;DHT22;9418;52.694;13.294;2022-10-18T02:49:43;16.50;66.30
18577;DHT22;9418;52.694;13.294;2022-10-18T02:52:11;16.40;68.30
18577;DHT22;9418;52.694;13.294;2022-10-18T02:54:37;16.50;66.00
18577;DHT22;9418;52.694;13.294;2022-10-18T02:57:04;16.40;65.00
18577;DHT22;9418;52.694;13.294;2022-10-18T02:59:31;16.40;63.50
18577;DHT22;9418;52.694;13.294;2022-10-18T03:01:57;16.40;63.00
18577;DHT22;9418;52.694;13.294;2022-10-18T03:04:24;16.40;61.10
18577;DHT22;9418;52.694;13.294;2022-10-18T03:06:50;16.40;60.00
18577;DHT22;9418;52.694;13.294;2022-10-18T03:09:18;16.40;58.50
18577;DHT22;9418;52.694;13.294;2022-10-18T03:11:45;16.30;57.40
18577;DHT22;9418;52.694;13.294;2022-10-18T03:14:11;16.30;55.30
18577;DHT22;9418;52.694;13.294;2022-10-18T03:16:38;16.30;56.20
18577;DHT22;9418;52.694;13.294;2022-10-18T03:19:04;16.30;54.10
18577;DHT22;9418;52.694;13.294;2022-10-18T03:21:31;16.30;51.80
18577;DHT22;9418;52.694;13.294;2022-10-18T03:23:58;16.20;50.90
18577;DHT22;9418;52.694;13.294;2022-10-18T03:26:26;16.30;49.00
18577;DHT22;9418;52.694;13.294;2022-10-18T03:28:52;16.30;46.00
18577;DHT22;9418;52.694;13.294;2022-10-18T03:31:19;16.30;44.50
18577;DHT22;9418;52.694;13.294;2022-10-18T03:33:45;16.20;41.80
18577;DHT22;9418;52.694;13.294;2022-10-18T03:36:12;16.20;41.20
18577;DHT22;9418;52.694;13.294;2022-10-18T03:38:39;16.20;38.50
18577;DHT22;9418;52.694;13.294;2022-10-18T03:41:07;16.10;37.50
18577;DHT22;9418;52.694;13.294;2022-10-18T03:43:34;16.10;33.50
18577;DHT22;9418;52.694;13.294;2022-10-18T03:46:01;16.10;30.40
18577;DHT22;9418;52.694;13.294;2022-10-18T03:48:28;16.10;29.50
18577;DHT22;9418;52.694;13.294;2022-10-18T03:50:54;16.00;26.70
18577;DHT22;9418;52.694;13.294;2022-10-18T03:53:21;16.00;26.40
18577;DHT22;9418;52.694;13.294;2022-10-18T03:55:49;16.00;23.40
18577;DHT22;9418;52.694;13.294;2022-10-18T03:58:16;16.00;21.70
18577;DHT22;9418;52.694;13.294;2022-10-18T04:00:47;16.00;20.80
18577;DHT22;9418;52.694;13.294;2022-10-18T04:03:14;15.90;77.10
18577;DHT22;9418;52.694;13.294;2022-10-18T04:05:40;15.90;94.90
18577;DHT22;9418;52.694;13.294;2022-10-18T04:08:07;15.90;99.90
18577;DHT22;9418;52.694;13.294;2022-10-18T04:10:34;15.90;99.90
18577;DHT22;9418;52.694;13.294;2022-10-18T04:13:02;15.80;99.90
18577;DHT22;9418;52.694;13.294;2022-10-18T04:15:28;15.80;99.90
18577;DHT22;9418;52.694;13.294;2022-10-18T04:17:56;15.80;99.90
18577;DHT22;9418;52.694;13.294;2022-10-18T04:20:23;15.80;99.90
18577;DHT22;9418;52.694;13.294;2022-10-18T04:22:50;15.80;99.90
18577;DHT22;9418;52.694;13.294;2022-10-18T04:25:19;15.80;99.90
18577;DHT22;9418;52.694;13.294;2022-10-18T04:27:46;15.70;99.90
18577;DHT22;9418;52.694;13.294;2022-10-18T04:30:13;15.70;99.90
18577;DHT22;9418;52.694;13.294;2022-10-18T04:32:39;15.70;99.90
18577;DHT22;9418;52.694;13.294;2022-10-18T04:35:09;15.60;99.90
18577;DHT22;9418;52.694;13.294;2022-10-18T04:37:36;15.60;99.90
18577;DHT22;9418;52.694;13.294;2022-10-18T04:40:03;15.60;99.90
18577;DHT22;9418;52.694;13.294;2022-10-18T04:42:29;15.60;99.90
18577;DHT22;9418;52.694;13.294;2022-10-18T04:44:56;15.60;99.90
18577;DHT22;9418;52.694;13.294;2022-10-18T04:47:23;15.50;99.90
18577;DHT22;9418;52.694;13.294;2022-10-18T04:49:49;15.50;99.90
18577;DHT22;9418;52.694;13.294;2022-10-18T04:52:17;15.50;99.90
18577;DHT22;9418;52.694;13.294;2022-10-18T04:54:44;15.50;99.90
18577;DHT22;9418;52.694;13.294;2022-10-18T04:57:11;15.50;99.90
18577;DHT22;9418;52.694;13.294;2022-10-18T04:59:37;15.40;99.90
18577;DHT22;9418;52.694;13.294;2022-10-18T05:02:04;15.40;99.90
18577;DHT22;9418;52.694;13.294;2022-10-18T05:04:30;15.40;99.90
18577;DHT22;9418;52.694;13.294;2022-10-18T05:06:57;15.40;99.90
18577;DHT22;9418;52.694;13.294;2022-10-18T05:09:25;15.40;99.90
18577;DHT22;9418;52.694;13.294;2022-10-18T05:11:52;15.40;99.90
18577;DHT22;9418;52.694;13.294;2022-10-18T05:14:20;15.30;99.90
18577;DHT22;9418;52.694;13.294;2022-10-18T05:16:47;15.30;99.90
18577;DHT22;9418;52.694;13.294;2022-10-18T05:19:14;15.30;99.90
18577;DHT22;9418;52.694;13.294;2022-10-18T05:21:40;15.30;99.90
18577;DHT22;9418;52.694;13.294;2022-10-18T05:24:08;15.30;99.90
18577;DHT22;9418;52.694;13.294;2022-10-18T05:26:36;15.30;99.90
18577;DHT22;9418;52.694;13.294;2022-10-18T05:29:03;15.30;99.90
18577;DHT22;9418;52.694;13.294;2022-10-18T05:31:29;15.30;99.90
18577;DHT22;9418;52.694;13.294;2022-10-18T05:33:56;15.20;99.90
18577;DHT22;9418;52.694;13.294;2022-10-18T05:36:23;15.20;99.90
18577;DHT22;9418;52.694;13.294;2022-10-18T05:38:50;15.20;99.90
18577;DHT22;9418;52.694;13.294;2022-10-18T05:41:18;15.20;99.90
18577;DHT22;9418;52.694;13.294;2022-10-18T05:43:46;15.20;99.90
18577;DHT22;9418;52.694;13.294;2022-10-18T05:46:12;15.20;99.90
18577;DHT22;9418;52.694;13.294;2022-10-18T05:48:39;15.20;99.90
18577;DHT22;9418;52.694;13.294;2022-10-18T05:51:06;15.10;99.90
18577;DHT22;9418;52.694;13.294;2022-10-18T05:53:32;15.10;99.90
18577;DHT22;9418;52.694;13.294;2022-10-18T05:55:59;15.10;99.90
18577;DHT22;9418;52.694;13.294;2022-10-18T05:58:26;15.10;99.90
18577;DHT22;9418;52.694;13.294;2022-10-18T06:00:57;15.10;99.90
18577;DHT22;9418;52.694;13.294;2022-10-18T06:03:24;15.10;99.90
18577;DHT22;9418;52.694;13.294;2022-10-18T06:05:51;15.10;99.90
18577;DHT22;9418;52.694;13.294;2022-10-18T06:08:18;15.10;99.90
18577;DHT22;9418;52.694;13.294;2022-10-18T06:10:44;15.10;99.90
18577;DHT22;9418;52.694;13.294;2022-10-18T06:13:11;15.10;99.90
18577;DHT22;9418;52.694;13.294;2022-10-18T06:15:38;15.00;99.90
18577;DHT22;9418;52.694;13.294;2022-10-18T06:18:05;15.10;99.90
18577;DHT22;9418;52.694;13.294;2022-10-18T06:20:32;15.00;99.90
18577;DHT22;9418;52.694;13.294;2022-10-18T06:22:59;15.10;99.90
18577;DHT22;9418;52.694;13.294;2022-10-18T06:25:25;15.10;99.90
18577;DHT22;9418;52.694;13.294;2022-10-18T06:27:52;15.00;99.90
18577;DHT22;9418;52.694;13.294;2022-10-18T06:30:19;15.10;99.90
18577;DHT22;9418;52.694;13.294;2022-10-18T06:32:46;15.10;99.90
18577;DHT22;9418;52.694;13.294;2022-10-18T06:35:14;15.10;99.90
18577;DHT22;9418;52.694;13.294;2022-10-18T06:37:40;15.10;99.90
18577;DHT22;9418;52.694;13.294;2022-10-18T06:40:08;15.10;99.90
18577;DHT22;9418;52.694;13.294;2022-10-18T06:42:35;15.10;99.90
18577;DHT22;9418;52.694;13.294;2022-10-18T06:45:01;15.10;99.90
18577;DHT22;9418;52.694;13.294;2022-10-18T06:47:28;15.10;99.90
18577;DHT22;9418;52.694;13.294;2022-10-18T06:49:54;15.10;99.90
18577;DHT22;9418;52.694;13.294;2022-10-18T06:52:22;15.10;99.90
18577;DHT22;9418;52.694;13.294;2022-10-18T06:54:50;15.10;99.90
18577;DHT22;9418;52.694;13.294;2022-10-18T06:57:17;15.10;99.90
18577;DHT22;9418;52.694;13.294;2022-10-18T06:59:46;15.10;99.90
18577;DHT22;9418;52.694;13.294;2022-10-18T07:02:15;15.10;99.90
18577;DHT22;9418;52.694;13.294;2022-10-18T07:04:42;15.10;99.90
18577;DHT22;9418;52.694;13.294;2022-10-18T07:07:09;15.20;99.90
18577;DHT22;9418;52.694;13.294;2022-10-18T07:09:36;15.20;99.90
18577;DHT22;9418;52.694;13.294;2022-10-18T07:12:03;15.20;99.90
18577;DHT22;9418;52.694;13.294;2022-10-18T07:14:30;15.20;99.90
18577;DHT22;9418;52.694;13.294;2022-10-18T07:16:58;15.20;99.90
18577;DHT22;9418;52.694;13.294;2022-10-18T07:19:24;15.20;99.90
18577;DHT22;9418;52.694;13.294;2022-10-18T07:21:51;15.20;99.90
18577;DHT22;9418;52.694;13.294;2022-10-18T07:24:18;15.20;99.90
18577;DHT22;9418;52.694;13.294;2022-10-18T07:26:45;15.20;99.90
18577;DHT22;9418;52.694;13.294;2022-10-18T07:29:12;15.20;99.90
18577;DHT22;9418;52.694;13.294;2022-10-18T07:31:39;15.10;99.90
18577;DHT22;9418;52.694;13.294;2022-10-18T07:34:06;15.10;99.90
18577;DHT22;9418;52.694;13.294;2022-10-18T07:36:33;15.10;99.90
18577;DHT22;9418;52.694;13.294;2022-10-18T07:39:00;15.10;99.90
18577;DHT22;9418;52.694;13.294;2022-10-18T07:41:27;15.10;99.90
18577;DHT22;9418;52.694;13.294;2022-10-18T07:43:55;15.00;99.90
18577;DHT22;9418;52.694;13.294;2022-10-18T07:46:22;15.00;99.90
18577;DHT22;9418;52.694;13.294;2022-10-18T07:48:49;15.10;99.90
18577;DHT22;9418;52.694;13.294;2022-10-18T07:51:16;15.00;99.90
18577;DHT22;9418;52.694;13.294;2022-10-18T07:53:43;15.10;99.90
18577;DHT22;9418;52.694;13.294;2022-10-18T07:56:11;15.10;99.90
18577;DHT22;9418;52.694;13.294;2022-10-18T07:58:40;15.00;99.90
18577;DHT22;9418;52.694;13.294;2022-10-18T08:01:09;15.10;99.90
18577;DHT22;9418;52.694;13.294;2022-10-18T08:03:36;15.10;99.90
18577;DHT22;9418;52.694;13.294;2022-10-18T08:06:04;15.00;99.90
18577;DHT22;9418;52.694;13.294;2022-10-18T08:08:34;15.00;99.90
18577;DHT22;9418;52.694;13.294;2022-10-18T08:11:02;15.00;99.90
18577;DHT22;9418;52.694;13.294;2022-10-18T08:13:28;15.00;99.90
18577;DHT22;9418;52.694;13.294;2022-10-18T08:15:58;15.00;99.90
18577;DHT22;9418;52.694;13.294;2022-10-18T08:18:27;15.00;99.90
18577;DHT22;9418;52.694;13.294;2022-10-18T08:20:54;15.00;99.90
18577;DHT22;9418;52.694;13.294;2022-10-18T08:23:20;15.00;99.90
18577;DHT22;9418;52.694;13.294;2022-10-18T08:25:47;15.00;99.90
18577;DHT22;9418;52.694;13.294;2022-10-18T08:28:14;15.00;99.90
18577;DHT22;9418;52.694;13.294;2022-10-18T08:30:42;15.00;99.90
18577;DHT22;9418;52.694;13.294;2022-10-18T08:33:08;15.00;99.90
18577;DHT22;9418;52.694;13.294;2022-10-18T08:35:37;15.00;99.90
18577;DHT22;9418;52.694;13.294;2022-10-18T08:38:04;15.00;99.90
18577;DHT22;9418;52.694;13.294;2022-10-18T08:40:35;15.10;99.90
18577;DHT22;9418;52.694;13.294;2022-10-18T08:43:06;15.00;99.90
18577;DHT22;9418;52.694;13.294;2022-10-18T08:45:36;15.10;99.90
18577;DHT22;9418;52.694;13.294;2022-10-18T08:48:08;15.10;99.90
18577;DHT22;9418;52.694;13.294;2022-10-18T08:50:42;15.10;99.90
18577;DHT22;9418;52.694;13.294;2022-10-18T08:53:14;15.10;99.90
18577;DHT22;9418;52.694;13.294;2022-10-18T08:55:45;15.10;99.90
18577;DHT22;9418;52.694;13.294;2022-10-18T08:58:18;15.20;99.90
18577;DHT22;9418;52.694;13.294;2022-10-18T09:01:02;15.20;99.90
18577;DHT22;9418;52.694;13.294;2022-10-18T09:03:47;15.10;99.90
18577;DHT22;9418;52.694;13.294;2022-10-18T09:06:24;15.10;99.90
18577;DHT22;9418;52.694;13.294;2022-10-18T09:09:06;15.10;99.90
18577;DHT22;9418;52.694;13.294;2022-10-18T09:11:49;15.10;99.90
18577;DHT22;9418;52.694;13.294;2022-10-18T09:17:15;15.10;99.90
18577;DHT22;9418;52.694;13.294;2022-10-18T09:19:56;15.10;99.90
18577;DHT22;9418;52.694;13.294;2022-10-18T09:22:45;15.20;99.90
18577;DHT22;9418;52.694;13.294;2022-10-18T09:25:17;15.20;99.90
18577;DHT22;9418;52.694;13.294;2022-10-18T09:27:51;15.20;99.90
18577;DHT22;9418;52.694;13.294;2022-10-18T09:30:33;15.20;99.90
18577;DHT22;9418;52.694;13.294;2022-10-18T09:33:14;15.20;99.90
18577;DHT22;9418;52.694;13.294;2022-10-18T09:35:48;15.20;99.90
18577;DHT22;9418;52.694;13.294;2022-10-18T09:38:21;15.20;99.90
18577;DHT22;9418;52.694;13.294;2022-10-18T09:40:53;15.20;99.90
18577;DHT22;9418;52.694;13.294;2022-10-18T09:43:23;15.20;99.90
18577;DHT22;9418;52.694;13.294;2022-10-18T09:45:52;15.20;99.90
18577;DHT22;9418;52.694;13.294;2022-10-18T09:48:22;15.20;99.90
18577;DHT22;9418;52.694;13.294;2022-10-18T09:50:55;15.20;99.90
18577;DHT22;9418;52.694;13.294;2022-10-18T09:53:29;15.20;99.90
18577;DHT22;9418;52.694;13.294;2022-10-18T09:56:01;15.20;99.90
18577;DHT22;9418;52.694;13.294;2022-10-18T09:58:42;15.20;99.90
18577;DHT22;9418;52.694;13.294;2022-10-18T10:01:12;15.20;99.90
18577;DHT22;9418;52.694;13.294;2022-10-18T10:03:40;15.20;99.90
18577;DHT22;9418;52.694;13.294;2022-10-18T10:06:22;15.20;99.90
18577;DHT22;9418;52.694;13.294;2022-10-18T10:08:58;15.20;99.90
18577;DHT22;9418;52.694;13.294;2022-10-18T10:11:31;15.20;99.90
18577;DHT22;9418;52.694;13.294;2022-10-18T10:14:07;15.20;99.90
18577;DHT22;9418;52.694;13.294;2022-10-18T10:16:42;15.20;99.90
18577;DHT22;9418;52.694;13.294;2022-10-18T10:19:18;15.10;99.90
18577;DHT22;9418;52.694;13.294;2022-10-18T10:21:46;15.20;99.90
18577;DHT22;9418;52.694;13.294;2022-10-18T10:24:22;15.10;99.90
18577;DHT22;9418;52.694;13.294;2022-10-18T10:26:50;15.10;99.90
18577;DHT22;9418;52.694;13.294;2022-10-18T10:29:47;15.10;99.90
18577;DHT22;9418;52.694;13.294;2022-10-18T10:32:17;15.10;99.90
18577;DHT22;9418;52.694;13.294;2022-10-18T10:34:45;15.10;99.90
18577;DHT22;9418;52.694;13.294;2022-10-18T10:37:30;15.10;99.90
18577;DHT22;9418;52.694;13.294;2022-10-18T10:40:13;15.10;99.90
18577;DHT22;9418;52.694;13.294;2022-10-18T10:43:13;15.10;99.90
18577;DHT22;9418;52.694;13.294;2022-10-18T10:45:58;15.10;99.90
18577;DHT22;9418;52.694;13.294;2022-10-18T10:48:26;15.10;99.90
18577;DHT22;9418;52.694;13.294;2022-10-18T10:50:57;15.10;99.90
18577;DHT22;9418;52.694;13.294;2022-10-18T10:53:31;15.10;99.90
18577;DHT22;9418;52.694;13.294;2022-10-18T10:56:01;15.10;99.90
18577;DHT22;9418;52.694;13.294;2022-10-18T10:58:33;15.10;99.90
18577;DHT22;9418;52.694;13.294;2022-10-18T11:01:17;15.10;99.90
18577;DHT22;9418;52.694;13.294;2022-10-18T11:03:46;15.10;99.90
18577;DHT22;9418;52.694;13.294;2022-10-18T11:09:22;15.00;99.90
18577;DHT22;9418;52.694;13.294;2022-10-18T11:12:00;15.00;99.90
18577;DHT22;9418;52.694;13.294;2022-10-18T11:14:31;15.00;99.90
18577;DHT22;9418;52.694;13.294;2022-10-18T11:17:06;15.10;99.90
18577;DHT22;9418;52.694;13.294;2022-10-18T11:19:43;15.10;99.90
18577;DHT22;9418;52.694;13.294;2022-10-18T11:22:17;15.10;99.90
18577;DHT22;9418;52.694;13.294;2022-10-18T11:24:44;15.10;99.90
18577;DHT22;9418;52.694;13.294;2022-10-18T11:27:18;15.10;99.90
18577;DHT22;9418;52.694;13.294;2022-10-18T11:30:13;15.10;99.90
18577;DHT22;9418;52.694;13.294;2022-10-18T11:32:47;15.20;99.90
18577;DHT22;9418;52.694;13.294;2022-10-18T11:35:30;15.10;99.90
18577;DHT22;9418;52.694;13.294;2022-10-18T11:38:08;15.20;99.90
18577;DHT22;9418;52.694;13.294;2022-10-18T11:40:46;15.20;99.90
18577;DHT22;9418;52.694;13.294;2022-10-18T11:43:23;15.20;99.90
18577;DHT22;9418;52.694;13.294;2022-10-18T11:45:57;15.20;99.90
18577;DHT22;9418;52.694;13.294;2022-10-18T11:48:50;15.30;99.90
18577;DHT22;9418;52.694;13.294;2022-10-18T11:51:27;15.30;99.90
18577;DHT22;9418;52.694;13.294;2022-10-18T11:54:10;15.30;99.90
18577;DHT22;9418;52.694;13.294;2022-10-18T11:56:43;15.30;99.90
18577;DHT22;9418;52.694;13.294;2022-10-18T11:59:26;15.30;99.90
18577;DHT22;9418;52.694;13.294;2022-10-18T12:02:01;15.30;99.90
18577;DHT22;9418;52.694;13.294;2022-10-18T12:04:33;15.30;99.90
18577;DHT22;9418;52.694;13.294;2022-10-18T12:07:03;15.30;99.90
18577;DHT22;9418;52.694;13.294;2022-10-18T12:09:35;15.30;99.90
18577;DHT22;9418;52.694;13.294;2022-10-18T12:12:13;15.30;99.90
18577;DHT22;9418;52.694;13.294;2022-10-18T12:14:45;15.40;99.90
18577;DHT22;9418;52.694;13.294;2022-10-18T12:17:19;15.40;99.90
18577;DHT22;9418;52.694;13.294;2022-10-18T12:19:49;15.50;99.90
18577;DHT22;9418;52.694;13.294;2022-10-18T12:22:22;15.50;99.90
18577;DHT22;9418;52.694;13.294;2022-10-18T12:24:51;15.50;99.90
18577;DHT22;9418;52.694;13.294;2022-10-18T12:27:18;15.50;99.90
18577;DHT22;9418;52.694;13.294;2022-10-18T12:29:54;15.50;99.90
18577;DHT22;9418;52.694;13.294;2022-10-18T12:32:25;15.60;99.90
18577;DHT22;9418;52.694;13.294;2022-10-18T12:34:57;15.70;99.90
18577;DHT22;9418;52.694;13.294;2022-10-18T12:37:49;15.70;99.90
18577;DHT22;9418;52.694;13.294;2022-10-18T12:40:23;15.80;99.90
18577;DHT22;9418;52.694;13.294;2022-10-18T12:42:52;15.80;99.90
18577;DHT22;9418;52.694;13.294;2022-10-18T12:45:26;15.80;99.90
18577;DHT22;9418;52.694;13.294;2022-10-18T12:47:53;15.80;99.90
18577;DHT22;9418;52.694;13.294;2022-10-18T12:50:28;15.80;99.90
18577;DHT22;9418;52.694;13.294;2022-10-18T12:53:19;15.80;99.90
18577;DHT22;9418;52.694;13.294;2022-10-18T12:55:50;15.90;99.90
18577;DHT22;9418;52.694;13.294;2022-10-18T12:58:29;15.90;99.90
18577;DHT22;9418;52.694;13.294;2022-10-18T13:01:00;15.80;99.90
18577;DHT22;9418;52.694;13.294;2022-10-18T13:06:12;15.80;99.90
18577;DHT22;9418;52.694;13.294;2022-10-18T13:08:40;15.90;99.90
18577;DHT22;9418;52.694;13.294;2022-10-18T13:11:27;15.80;99.90
18577;DHT22;9418;52.694;13.294;2022-10-18T13:14:48;15.80;99.90
18577;DHT22;9418;52.694;13.294;2022-10-18T13:17:28;15.80;99.90
18577;DHT22;9418;52.694;13.294;2022-10-18T13:20:08;15.80;99.90
18577;DHT22;9418;52.694;13.294;2022-10-18T13:22:51;15.80;99.90
18577;DHT22;9418;52.694;13.294;2022-10-18T13:25:21;15.80;99.90
18577;DHT22;9418;52.694;13.294;2022-10-18T13:27:54;15.80;99.90
18577;DHT22;9418;52.694;13.294;2022-10-18T13:30:40;15.80;99.90
18577;DHT22;9418;52.694;13.294;2022-10-18T13:33:29;15.80;99.90
18577;DHT22;9418;52.694;13.294;2022-10-18T13:35:57;15.80;1.40
18577;DHT22;9418;52.694;13.294;2022-10-18T13:38:44;15.80;99.90
18577;DHT22;9418;52.694;13.294;2022-10-18T13:41:15;16.00;99.90
18577;DHT22;9418;52.694;13.294;2022-10-18T13:44:09;16.20;99.90
18577;DHT22;9418;52.694;13.294;2022-10-18T13:50:17;16.40;99.90
18577;DHT22;9418;52.694;13.294;2022-10-18T13:56:04;16.30;99.90
18577;DHT22;9418;52.694;13.294;2022-10-18T13:58:42;16.10;99.90
18577;DHT22;9418;52.694;13.294;2022-10-18T14:01:19;16.00;99.90
18577;DHT22;9418;52.694;13.294;2022-10-18T14:07:00;15.80;99.90
18577;DHT22;9418;52.694;13.294;2022-10-18T14:09:33;15.70;99.90
18577;DHT22;9418;52.694;13.294;2022-10-18T14:12:08;15.70;99.90
18577;DHT22;9418;52.694;13.294;2022-10-18T14:14:42;15.60;99.90
18577;DHT22;9418;52.694;13.294;2022-10-18T14:17:14;15.60;99.90
18577;DHT22;9418;52.694;13.294;2022-10-18T14:19:48;15.60;99.90
18577;DHT22;9418;52.694;13.294;2022-10-18T14:22:20;15.60;99.90
18577;DHT22;9418;52.694;13.294;2022-10-18T14:24:50;15.50;99.90
18577;DHT22;9418;52.694;13.294;2022-10-18T14:27:19;15.60;99.90
18577;DHT22;9418;52.694;13.294;2022-10-18T14:29:47;15.50;99.90
18577;DHT22;9418;52.694;13.294;2022-10-18T14:32:24;15.60;99.90
18577;DHT22;9418;52.694;13.294;2022-10-18T14:34:51;15.60;22.40
18577;DHT22;9418;52.694;13.294;2022-10-18T14:37:25;15.70;21.90
18577;DHT22;9418;52.694;13.294;2022-10-18T14:39:52;15.80;29.40
18577;DHT22;9418;52.694;13.294;2022-10-18T14:42:21;15.80;47.00
18577;DHT22;9418;52.694;13.294;2022-10-18T14:44:48;15.80;45.30
18577;DHT22;9418;52.694;13.294;2022-10-18T14:47:19;15.80;50.50
18577;DHT22;9418;52.694;13.294;2022-10-18T14:49:46;15.70;80.60
18577;DHT22;9418;52.694;13.294;2022-10-18T14:52:15;15.60;80.30
18577;DHT22;9418;52.694;13.294;2022-10-18T14:54:44;15.50;93.90
18577;DHT22;9418;52.694;13.294;2022-10-18T14:57:16;15.30;99.90
18577;DHT22;9418;52.694;13.294;2022-10-18T14:59:46;15.30;99.90
18577;DHT22;9418;52.694;13.294;2022-10-18T15:02:20;15.10;99.90
18577;DHT22;9418;52.694;13.294;2022-10-18T15:04:55;15.00;99.90
18577;DHT22;9418;52.694;13.294;2022-10-18T15:07:22;14.90;99.90
18577;DHT22;9418;52.694;13.294;2022-10-18T15:09:51;14.80;99.90
18577;DHT22;9418;52.694;13.294;2022-10-18T15:12:18;14.80;99.90
18577;DHT22;9418;52.694;13.294;2022-10-18T15:14:45;14.80;99.90
18577;DHT22;9418;52.694;13.294;2022-10-18T15:17:14;14.70;99.90
18577;DHT22;9418;52.694;13.294;2022-10-18T15:19:54;14.60;99.90
18577;DHT22;9418;52.694;13.294;2022-10-18T15:22:22;14.60;99.90
18577;DHT22;9418;52.694;13.294;2022-10-18T15:25:08;14.50;99.90
18577;DHT22;9418;52.694;13.294;2022-10-18T15:27:38;14.50;99.90
18577;DHT22;9418;52.694;13.294;2022-10-18T15:30:06;14.50;99.90
18577;DHT22;9418;52.694;13.294;2022-10-18T15:32:33;14.40;99.90
18577;DHT22;9418;52.694;13.294;2022-10-18T15:35:07;14.40;99.90
18577;DHT22;9418;52.694;13.294;2022-10-18T15:37:36;14.40;99.90
18577;DHT22;9418;52.694;13.294;2022-10-18T15:40:30;14.30;97.90
18577;DHT22;9418;52.694;13.294;2022-10-18T15:42:59;14.20;82.30
18577;DHT22;9418;52.694;13.294;2022-10-18T15:45:30;14.10;66.40
18577;DHT22;9418;52.694;13.294;2022-10-18T15:47:59;14.10;49.60
18577;DHT22;9418;52.694;13.294;2022-10-18T15:50:37;14.00;51.00
18577;DHT22;9418;52.694;13.294;2022-10-18T15:53:49;13.90;48.90
18577;DHT22;9418;52.694;13.294;2022-10-18T15:56:33;13.80;41.70
18577;DHT22;9418;52.694;13.294;2022-10-18T15:59:03;13.80;34.30
18577;DHT22;9418;52.694;13.294;2022-10-18T16:01:41;13.70;25.80
18577;DHT22;9418;52.694;13.294;2022-10-18T16:04:16;13.70;21.00
18577;DHT22;9418;52.694;13.294;2022-10-18T16:06:44;13.60;99.90
18577;DHT22;9418;52.694;13.294;2022-10-18T16:09:14;13.50;99.90
18577;DHT22;9418;52.694;13.294;2022-10-18T16:11:42;13.40;99.90
18577;DHT22;9418;52.694;13.294;2022-10-18T16:14:09;13.40;99.90
18577;DHT22;9418;52.694;13.294;2022-10-18T16:16:37;13.40;99.90